createdAt,value
2023-04-30T00:02:24.329Z,70.65
2023-04-30T00:06:07.236Z,70.70
2023-04-30T00:09:51.238Z,71.08
2023-04-30T00:13:34.641Z,71.29
2023-04-30T00:17:18.638Z,70.92
2023-04-30T00:21:01.335Z,71.41
2023-04-30T00:24:44.192Z,71.08
2023-04-30T00:28:26.867Z,71.08
2023-04-30T00:32:09.544Z,70.75
2023-04-30T00:35:53.674Z,70.65
2023-04-30T00:39:36.375Z,70.29
2023-04-30T00:43:18.976Z,70.34
2023-04-30T00:47:01.591Z,70.47
2023-04-30T00:50:45.310Z,70.47
2023-04-30T00:54:29.430Z,69.94
2023-04-30T00:58:12.135Z,69.78
2023-04-30T01:01:55.074Z,69.66
2023-04-30T01:05:37.706Z,68.67
2023-04-30T01:09:20.789Z,67.96
2023-04-30T01:13:13.902Z,67.68
2023-04-30T01:17:04.691Z,67.74
2023-04-30T01:20:50.796Z,67.77
2023-04-30T01:24:51.244Z,68.11
2023-04-30T01:28:37.123Z,68.16
2023-04-30T01:32:19.828Z,68.05
2023-04-30T01:36:21.142Z,67.66
2023-04-30T01:40:15.130Z,67.49
2023-04-30T01:44:10.054Z,67.84
2023-04-30T01:47:57.456Z,67.86
2023-04-30T01:51:42.254Z,67.69
2023-04-30T01:55:29.425Z,68.15
2023-04-30T01:59:15.149Z,68.22
2023-04-30T02:02:58.129Z,68.13
2023-04-30T02:06:41.517Z,68.52
2023-04-30T02:10:25.820Z,68.18
2023-04-30T02:14:08.455Z,68.59
2023-04-30T02:17:52.595Z,68.26
2023-04-30T02:21:35.311Z,68.58
2023-04-30T02:25:18.137Z,68.59
2023-04-30T02:29:00.775Z,68.39
2023-04-30T02:32:43.452Z,68.17
2023-04-30T02:36:27.529Z,68.65
2023-04-30T02:40:11.694Z,68.53
2023-04-30T02:43:54.411Z,68.59
2023-04-30T02:47:37.215Z,68.11
2023-04-30T02:51:20.017Z,67.88
2023-04-30T02:55:04.262Z,67.55
2023-04-30T02:58:46.919Z,67.51
2023-04-30T03:02:29.574Z,67.18
2023-04-30T03:06:12.332Z,68.18
2023-04-30T03:09:55.250Z,68.54
2023-04-30T03:13:39.428Z,69.02
2023-04-30T03:17:22.147Z,68.52
2023-04-30T03:21:04.852Z,68.71
2023-04-30T03:24:47.733Z,68.44
2023-04-30T03:28:30.366Z,68.45
2023-04-30T03:32:14.393Z,68.27
2023-04-30T03:35:57.024Z,68.55
2023-04-30T03:39:39.834Z,68.60
2023-04-30T03:43:23.096Z,68.80
2023-04-30T03:47:05.923Z,69.41
2023-04-30T03:50:50.214Z,69.21
2023-04-30T03:54:33.785Z,69.53
2023-04-30T03:58:16.490Z,69.53
2023-04-30T04:01:59.153Z,69.47
2023-04-30T04:05:42.017Z,69.84
2023-04-30T04:09:25.972Z,69.75
2023-04-30T04:13:08.633Z,69.13
2023-04-30T04:16:51.542Z,69.43
2023-04-30T04:20:34.299Z,69.56
2023-04-30T04:24:16.989Z,68.89
2023-04-30T04:28:01.020Z,69.14
2023-04-30T04:31:43.781Z,68.85
2023-04-30T04:35:26.726Z,68.14
2023-04-30T04:39:09.373Z,67.65
2023-04-30T04:42:52.395Z,68.16
2023-04-30T04:46:38.688Z,67.97
2023-04-30T04:50:21.499Z,67.95
2023-04-30T04:54:04.599Z,67.86
2023-04-30T04:57:47.291Z,68.21
2023-04-30T05:01:29.970Z,68.73
2023-04-30T05:05:13.999Z,68.23
2023-04-30T05:08:56.692Z,68.46
2023-04-30T05:12:39.337Z,68.92
2023-04-30T05:16:21.976Z,69.17
2023-04-30T05:20:07.197Z,69.29
2023-04-30T05:23:51.236Z,68.82
2023-04-30T05:27:34.163Z,68.72
2023-04-30T05:31:20.943Z,68.72
2023-04-30T05:35:07.270Z,68.52
2023-04-30T05:38:51.688Z,68.49
2023-04-30T05:42:34.467Z,68.20
2023-04-30T05:46:17.354Z,68.35
2023-04-30T05:50:00.049Z,68.07
2023-04-30T05:53:42.718Z,67.89
2023-04-30T05:57:26.758Z,67.99
2023-04-30T06:01:11.090Z,67.64
2023-04-30T06:04:53.859Z,67.77
2023-04-30T06:08:36.529Z,67.67
2023-04-30T06:12:19.142Z,67.83
2023-04-30T06:16:03.422Z,68.00
2023-04-30T06:19:46.095Z,67.94
2023-04-30T06:23:28.757Z,68.01
2023-04-30T06:27:11.392Z,67.29
2023-04-30T06:30:54.340Z,67.72
2023-04-30T06:34:39.551Z,68.10
2023-04-30T06:38:22.193Z,66.73
2023-04-30T06:42:05.061Z,66.55
2023-04-30T06:45:47.714Z,66.82
2023-04-30T06:49:33.391Z,66.38
2023-04-30T06:53:17.407Z,65.36
2023-04-30T06:57:00.053Z,63.43
2023-04-30T07:00:42.759Z,63.98
2023-04-30T07:04:26.122Z,64.79
2023-04-30T07:08:09.004Z,64.63
2023-04-30T07:11:53.019Z,65.43
2023-04-30T07:15:35.772Z,64.94
2023-04-30T07:19:18.558Z,64.46
2023-04-30T07:23:01.219Z,64.73
2023-04-30T07:26:43.902Z,65.14
2023-04-30T07:30:28.018Z,65.04
2023-04-30T07:34:10.654Z,64.63
2023-04-30T07:37:53.353Z,64.41
2023-04-30T07:41:36.130Z,64.17
2023-04-30T07:45:18.952Z,63.94
2023-04-30T07:49:04.057Z,63.53
2023-04-30T07:52:46.704Z,62.62
2023-04-30T07:56:29.359Z,62.07
2023-04-30T08:00:13.508Z,62.75
2023-04-30T08:03:56.306Z,62.01
2023-04-30T08:07:41.592Z,61.50
2023-04-30T08:11:24.194Z,61.50
2023-04-30T08:15:08.455Z,61.44
2023-04-30T08:18:51.316Z,59.43
2023-04-30T08:22:34.118Z,61.02
2023-04-30T08:26:18.149Z,62.47
2023-04-30T08:30:03.443Z,62.10
2023-04-30T08:33:46.058Z,62.42
2023-04-30T08:37:28.716Z,63.46
2023-04-30T08:41:13.168Z,64.00
2023-04-30T08:44:57.190Z,62.38
2023-04-30T08:48:40.665Z,61.85
2023-04-30T08:52:23.669Z,60.96
2023-04-30T08:56:07.066Z,59.84
2023-04-30T08:59:49.748Z,60.00
2023-04-30T09:03:33.917Z,59.11
2023-04-30T09:07:16.839Z,57.92
2023-04-30T09:10:59.497Z,58.03
2023-04-30T09:14:42.324Z,57.47
2023-04-30T09:18:24.984Z,57.53
2023-04-30T09:22:22.141Z,57.24
2023-04-30T09:26:04.902Z,56.86
2023-04-30T09:29:47.849Z,56.00
2023-04-30T09:33:46.638Z,55.92
2023-04-30T09:37:38.156Z,56.37
2023-04-30T09:41:25.658Z,56.14
2023-04-30T09:45:09.732Z,55.63
2023-04-30T09:49:03.803Z,55.77
2023-04-30T09:52:54.127Z,56.45
2023-04-30T09:56:40.802Z,55.67
2023-04-30T10:00:24.116Z,53.66
2023-04-30T10:04:07.115Z,52.65
2023-04-30T10:07:51.195Z,53.63
2023-04-30T10:11:34.793Z,53.62
2023-04-30T10:15:21.192Z,53.12
2023-04-30T10:19:08.463Z,53.55
2023-04-30T10:22:52.903Z,53.13
2023-04-30T10:26:36.159Z,53.37
2023-04-30T10:30:19.398Z,53.32
2023-04-30T10:34:07.983Z,53.79
2023-04-30T10:37:55.969Z,54.79
2023-04-30T10:41:40.150Z,53.92
2023-04-30T10:45:35.893Z,53.85
2023-04-30T10:49:26.057Z,52.65
2023-04-30T10:53:13.970Z,52.65
2023-04-30T10:57:11.557Z,51.39
2023-04-30T11:01:02.996Z,52.30
2023-04-30T11:05:12.868Z,53.17
2023-04-30T11:09:05.051Z,50.42
2023-04-30T11:12:51.680Z,50.74
2023-04-30T11:16:36.612Z,51.11
2023-04-30T11:20:22.514Z,50.36
2023-04-30T11:24:08.012Z,49.71
2023-04-30T11:27:52.572Z,50.40
2023-04-30T11:31:35.578Z,50.22
2023-04-30T11:35:19.793Z,50.30
2023-04-30T11:39:06.166Z,49.95
2023-04-30T11:42:50.702Z,49.71
2023-04-30T11:46:33.527Z,49.14
2023-04-30T11:50:17.448Z,48.56
2023-04-30T11:54:01.001Z,50.40
2023-04-30T11:57:44.825Z,49.58
2023-04-30T12:01:29.485Z,50.90
2023-04-30T12:05:17.038Z,49.89
2023-04-30T12:09:01.507Z,49.04
2023-04-30T12:12:45.006Z,49.49
2023-04-30T12:16:29.778Z,49.26
2023-04-30T12:20:14.633Z,48.08
2023-04-30T12:23:57.541Z,49.10
2023-04-30T12:27:40.598Z,48.31
2023-04-30T12:31:23.276Z,48.12
2023-04-30T12:35:08.587Z,48.67
2023-04-30T12:38:51.174Z,48.17
2023-04-30T12:42:35.010Z,48.30
2023-04-30T12:46:27.686Z,47.93
2023-04-30T12:50:13.036Z,47.17
2023-04-30T12:53:55.785Z,46.90
2023-04-30T12:57:38.451Z,46.39
2023-04-30T13:01:23.851Z,47.25
2023-04-30T13:05:08.834Z,48.08
2023-04-30T13:08:58.930Z,45.52
2023-04-30T13:12:43.804Z,46.56
2023-04-30T13:16:26.720Z,45.88
2023-04-30T13:20:11.111Z,45.62
2023-04-30T13:23:56.660Z,45.83
2023-04-30T13:27:40.698Z,45.41
2023-04-30T13:31:24.666Z,42.92
2023-04-30T13:35:12.520Z,43.73
2023-04-30T13:38:58.843Z,43.41
2023-04-30T13:42:43.241Z,42.25
2023-04-30T13:46:26.086Z,42.14
2023-04-30T13:50:09.713Z,42.88
2023-04-30T13:53:52.721Z,40.44
2023-04-30T13:57:39.771Z,40.23
2023-04-30T14:01:22.646Z,41.24
2023-04-30T14:05:06.936Z,40.61
2023-04-30T14:08:50.563Z,40.49
2023-04-30T14:12:34.707Z,40.19
2023-04-30T14:16:19.914Z,40.00
2023-04-30T14:20:02.624Z,41.42
2023-04-30T14:23:47.056Z,40.55
2023-04-30T14:27:29.775Z,40.67
2023-04-30T14:31:12.703Z,39.93
2023-04-30T14:34:56.796Z,38.74
2023-04-30T14:38:39.408Z,38.20
2023-04-30T14:42:22.102Z,37.01
2023-04-30T14:46:06.352Z,37.21
2023-04-30T14:49:52.022Z,38.06
2023-04-30T14:53:37.160Z,38.62
2023-04-30T14:57:19.839Z,39.65
2023-04-30T15:01:02.929Z,39.60
2023-04-30T15:04:46.307Z,40.04
2023-04-30T15:08:29.557Z,38.55
2023-04-30T15:12:14.061Z,38.72
2023-04-30T15:15:56.768Z,38.83
2023-04-30T15:19:39.493Z,38.16
2023-04-30T15:23:22.666Z,37.49
2023-04-30T15:27:05.449Z,36.58
2023-04-30T15:30:49.601Z,36.10
2023-04-30T15:34:32.244Z,35.49
2023-04-30T15:38:14.948Z,33.75
2023-04-30T15:41:57.852Z,33.46
2023-04-30T15:45:40.660Z,33.89
2023-04-30T15:49:25.084Z,35.47
2023-04-30T15:53:08.073Z,36.19
2023-04-30T15:56:51.455Z,36.17
2023-04-30T16:00:34.439Z,36.48
2023-04-30T16:04:17.342Z,35.53
2023-04-30T16:08:01.686Z,36.03
2023-04-30T16:11:44.344Z,36.33
2023-04-30T16:15:27.609Z,36.35
2023-04-30T16:19:12.357Z,36.21
2023-04-30T16:22:56.349Z,37.00
2023-04-30T16:26:40.514Z,36.81
2023-04-30T16:30:23.375Z,37.63
2023-04-30T16:34:11.288Z,37.89
2023-04-30T16:37:54.942Z,38.95
2023-04-30T16:41:37.621Z,39.88
2023-04-30T16:45:21.914Z,39.94
2023-04-30T16:49:04.727Z,40.50
2023-04-30T16:52:47.521Z,40.46
2023-04-30T16:56:30.256Z,40.84
2023-04-30T17:00:14.510Z,41.73
2023-04-30T17:03:58.680Z,42.00
2023-04-30T17:07:43.309Z,41.33
2023-04-30T17:11:26.169Z,42.19
2023-04-30T17:15:09.566Z,42.78
2023-04-30T17:18:52.190Z,42.52
2023-04-30T17:22:38.156Z,43.02
2023-04-30T17:26:21.518Z,43.82
2023-04-30T17:30:06.362Z,44.06
2023-04-30T17:33:49.135Z,44.16
2023-04-30T17:37:31.886Z,44.70
2023-04-30T17:41:18.429Z,44.81
2023-04-30T17:45:02.211Z,45.40
2023-04-30T17:48:45.019Z,45.63
2023-04-30T17:52:27.765Z,45.95
2023-04-30T17:56:10.465Z,46.22
2023-04-30T17:59:54.995Z,46.94
2023-04-30T18:03:38.039Z,47.84
2023-04-30T18:07:20.909Z,48.17
2023-04-30T18:11:03.781Z,48.98
2023-04-30T18:14:46.502Z,49.53
2023-04-30T18:22:43.279Z,50.37
2023-04-30T18:26:26.192Z,50.85
2023-04-30T18:30:09.681Z,50.48
2023-04-30T18:33:53.849Z,50.08
2023-04-30T18:37:36.535Z,50.72
2023-04-30T18:41:21.082Z,50.84
2023-04-30T18:45:04.096Z,51.22
2023-04-30T18:48:46.801Z,51.29
2023-04-30T18:52:30.909Z,51.44
2023-04-30T18:56:14.468Z,51.88
2023-04-30T18:59:57.502Z,51.61
2023-04-30T19:03:40.633Z,51.75
2023-04-30T19:07:23.360Z,51.90
2023-04-30T19:11:07.374Z,51.86
2023-04-30T19:14:50.247Z,52.25
2023-04-30T19:18:33.568Z,52.31
2023-04-30T19:22:16.217Z,52.11
2023-04-30T19:26:02.071Z,52.02
2023-04-30T19:29:47.076Z,52.33
2023-04-30T19:33:30.977Z,52.17
2023-04-30T19:37:13.741Z,52.02
2023-04-30T19:40:56.406Z,51.97
2023-04-30T19:44:39.144Z,52.76
2023-04-30T19:48:24.187Z,52.47
2023-04-30T19:52:07.951Z,52.59
2023-04-30T19:55:51.129Z,53.06
2023-04-30T19:59:33.837Z,53.59
2023-04-30T20:03:17.528Z,53.02
2023-04-30T20:07:01.586Z,52.98
2023-04-30T20:10:44.252Z,52.71
2023-04-30T20:14:27.224Z,52.10
2023-04-30T20:18:10.361Z,52.75
2023-04-30T20:21:53.622Z,53.08
2023-04-30T20:25:37.713Z,52.95
2023-04-30T20:29:20.708Z,52.27
2023-04-30T20:33:03.868Z,52.77
2023-04-30T20:36:48.889Z,53.30
2023-04-30T20:40:31.896Z,53.11
2023-04-30T20:44:15.900Z,53.12
2023-04-30T20:47:58.533Z,53.19
2023-04-30T20:51:41.312Z,52.75
2023-04-30T20:55:26.887Z,53.05
2023-04-30T20:59:09.551Z,52.88
2023-04-30T21:02:54.637Z,52.97
2023-04-30T21:06:38.309Z,53.71
2023-04-30T21:10:21.276Z,53.18
2023-04-30T21:14:04.104Z,53.86
2023-04-30T21:17:48.290Z,53.08
2023-04-30T21:21:32.365Z,53.27
2023-04-30T21:25:15.021Z,53.21
2023-04-30T21:28:57.720Z,53.50
2023-04-30T21:32:44.045Z,53.70
2023-04-30T21:36:29.889Z,54.47
2023-04-30T21:40:14.441Z,54.23
2023-04-30T21:43:59.796Z,54.53
2023-04-30T21:47:42.770Z,53.56
2023-04-30T21:51:25.768Z,53.61
2023-04-30T21:55:09.707Z,53.74
2023-04-30T21:58:53.753Z,53.74
2023-04-30T22:02:36.972Z,53.88
2023-04-30T22:06:19.832Z,53.81
2023-04-30T22:10:02.872Z,53.96
2023-04-30T22:13:45.527Z,54.35
2023-04-30T22:17:29.747Z,54.71
2023-04-30T22:21:12.441Z,54.35
2023-04-30T22:24:55.171Z,54.27
2023-04-30T22:28:38.061Z,54.66
2023-04-30T22:32:20.799Z,54.33
2023-04-30T22:36:06.287Z,54.59
2023-04-30T22:39:49.002Z,54.57
2023-04-30T22:43:31.837Z,54.61
2023-04-30T22:47:14.580Z,54.98
2023-04-30T22:50:58.717Z,54.61
2023-04-30T22:54:42.901Z,55.06
2023-04-30T22:58:25.578Z,54.76
2023-04-30T23:02:08.239Z,54.88
2023-04-30T23:05:51.604Z,55.14
2023-04-30T23:09:34.884Z,55.13
2023-04-30T23:13:19.363Z,55.02
2023-04-30T23:17:02.179Z,55.74
2023-04-30T23:20:44.838Z,55.06
2023-04-30T23:24:27.564Z,55.53
2023-04-30T23:28:10.265Z,55.86
2023-04-30T23:31:55.200Z,55.54
2023-04-30T23:35:38.145Z,55.76
2023-04-30T23:39:20.902Z,56.05
2023-04-30T23:43:03.542Z,56.26
2023-04-30T23:46:46.902Z,56.05
2023-04-30T23:50:31.210Z,56.56
2023-04-30T23:54:13.889Z,56.77
2023-04-30T23:57:59.364Z,57.15
